ソウル/仁川 の空港の天気 - METARとTAF

仁川国際空港 ( RKSI / ICN ) - 韓国 仁川広域市 (ソウル特別市近郊)
飛行場実況気象(Metar)
観測時間04/16 21:00 KST (04/16 12:00 UTC)
風向・風速西南西 5m/s
視程10km以上
天気現象
なし
気温9℃
湿度66%
気圧1017hPa
METARRKSI 161200Z 24010KT CAVOK 09/03 Q1017 NOSIG
過去の天気等 Google飛行場航空写真 Wunderground天気予報

過去48時間のMETAR

飛行場予報(TAF)
発表時間: 4/16 20:00 KST (4/16 11:00 UTC)
予報対象時間: 16日21時 KST ~ 18日3時 KST
風向・風速南西 3m/s
視程6000m
なし
17日7時 KST ~ 17日8時 KST に徐々に
風向・風速北北西 4m/s
全天の4割程度の雲 雲底高度 1070m
全天の8割程度の雲 雲底高度 2440m
17日11時 KST ~ 17日12時 KST に徐々に
風向・風速西 9m/s 瞬間風速 15m/s
全天の4割程度の雲 雲底高度 1070m
17日12時 KST ~ 17日14時 KST に一時的に
視程4000m
天気現象弱いしゅう雨
全天の4割程度の積乱雲 雲底高度 460m
全天の8割程度の雲 雲底高度 1070m
17日21時 KST ~ 17日22時 KST に徐々に
風向・風速北北西 8m/s 瞬間風速 13m/s
TAF RKSI 161100Z 1612/1718 23006KT 6000 NSC TN06/1621Z TX15/1705Z
BECMG 1622/1623 33008KT SCT035 BKN080
BECMG 1702/1703 27017G30KT SCT035
TEMPO 1703/1705 4000 -SHRA SCT015CB BKN035
BECMG 1712/1713 33015G25KT